Time;durP1;ratioP1;P1;durP2;ratioP2;P2;SDS_P1;SDS_P2;PMS_P1;PMS_P2;Temp;Humidity;BMP_temperature;BMP_pressure;BME280_temperature;BME280_humidity;BME280_pressure;Samples;Min_cycle;Max_cycle;Signal;HPM_P1;HPM_P2
2021/06/21 00:00:55;;;;;;;3.43;3.13;;;26.60;96.20;;;;;;5111992;28;20463;-70
2021/06/21 00:03:21;;;;;;;2.50;2.30;;;26.60;96.50;;;;;;5120382;27;20446;-69
2021/06/21 00:05:48;;;;;;;3.50;3.30;;;26.60;96.50;;;;;;5113418;28;20212;-69
2021/06/21 00:08:15;;;;;;;3.33;3.13;;;26.60;96.80;;;;;;5112481;28;20486;-70
2021/06/21 00:10:43;;;;;;;4.20;3.73;;;26.60;97.00;;;;;;5111871;28;20443;-69
2021/06/21 00:16:32;;;;;;;3.23;2.97;;;26.50;97.20;;;;;;5113356;28;20431;-70
2021/06/21 00:18:59;;;;;;;2.70;2.50;;;26.50;97.20;;;;;;5114963;28;20437;-69
2021/06/21 00:21:26;;;;;;;2.80;2.60;;;26.50;97.20;;;;;;5129225;28;20769;-69
2021/06/21 00:23:52;;;;;;;3.13;2.50;;;26.50;97.30;;;;;;5132018;28;20461;-69
2021/06/21 00:26:20;;;;;;;2.43;2.07;;;26.50;97.50;;;;;;5120773;28;20459;-69
2021/06/21 00:28:47;;;;;;;3.27;2.97;;;26.40;97.60;;;;;;5131652;28;20467;-69
2021/06/21 00:31:14;;;;;;;2.33;2.13;;;26.40;98.00;;;;;;5116408;28;20454;-69
2021/06/21 00:33:41;;;;;;;2.33;2.13;;;26.40;98.10;;;;;;5112778;28;20445;-69
2021/06/21 00:36:08;;;;;;;3.13;2.20;;;26.40;98.40;;;;;;5124262;28;20446;-69
2021/06/21 00:38:34;;;;;;;3.23;2.93;;;26.40;98.30;;;;;;5119517;28;20477;-69
2021/06/21 00:41:01;;;;;;;4.57;3.07;;;26.30;98.60;;;;;;5126278;28;20459;-68
2021/06/21 00:43:29;;;;;;;3.50;2.50;;;26.30;98.80;;;;;;5130175;28;20915;-70
2021/06/21 00:45:56;;;;;;;2.60;2.40;;;26.30;98.90;;;;;;5121425;28;20458;-69
2021/06/21 00:48:23;;;;;;;3.37;3.07;;;26.30;99.10;;;;;;5114816;28;20472;-69
2021/06/21 00:50:50;;;;;;;2.60;2.40;;;26.30;99.40;;;;;;5122665;28;20457;-68
2021/06/21 00:53:19;;;;;;;2.70;2.50;;;26.20;99.60;;;;;;5111445;28;20436;-69
2021/06/21 00:55:46;;;;;;;3.17;2.97;;;26.20;99.80;;;;;;5113406;28;20458;-69
2021/06/21 00:58:13;;;;;;;2.83;2.63;;;26.10;99.90;;;;;;5124063;28;20473;-68
2021/06/21 01:00:41;;;;;;;2.87;2.40;;;26.10;99.90;;;;;;5126630;28;20451;-69
2021/06/21 01:03:07;;;;;;;2.80;2.60;;;26.10;99.90;;;;;;5111316;28;20460;-68
2021/06/21 01:05:36;;;;;;;2.30;2.10;;;26.10;99.90;;;;;;5127344;28;20950;-69
2021/06/21 01:08:04;;;;;;;2.70;2.50;;;26.10;99.90;;;;;;5119858;28;20475;-69
2021/06/21 01:10:31;;;;;;;3.83;3.00;;;26.10;99.90;;;;;;5111415;28;20468;-69
2021/06/21 01:13:24;;;;;;;2.90;2.50;;;26.00;99.90;;;;;;5110895;28;20923;-68
2021/06/21 01:16:14;;;;;;;2.30;2.10;;;26.00;99.90;;;;;;5110607;28;20521;-70
2021/06/21 01:18:49;;;;;;;2.67;2.43;;;26.00;99.90;;;;;;5111988;28;20447;-70
2021/06/21 01:21:59;;;;;;;3.30;2.33;;;25.90;99.90;;;;;;5118463;28;20445;-70
2021/06/21 01:25:01;;;;;;;2.20;2.00;;;25.90;99.90;;;;;;5074730;28;20456;-70
2021/06/21 01:27:38;;;;;;;3.00;2.70;;;25.90;99.90;;;;;;5116371;27;20929;-69
2021/06/21 01:30:08;;;;;;;3.17;2.60;;;25.90;99.90;;;;;;5116908;27;20466;-69
2021/06/21 01:32:42;;;;;;;2.73;2.20;;;25.90;99.90;;;;;;5129981;27;20455;-69
2021/06/21 01:35:15;;;;;;;2.27;2.07;;;25.90;99.90;;;;;;5134675;27;20533;-69
2021/06/21 01:37:43;;;;;;;2.43;2.23;;;25.80;99.90;;;;;;5122417;27;21009;-69
2021/06/21 01:40:11;;;;;;;2.93;2.67;;;25.80;99.90;;;;;;5126346;27;20453;-69
2021/06/21 01:42:41;;;;;;;2.80;1.97;;;25.80;99.90;;;;;;5119416;27;20439;-69
2021/06/21 01:45:09;;;;;;;2.30;2.10;;;25.80;99.90;;;;;;5119417;27;20445;-69
2021/06/21 01:47:39;;;;;;;2.20;2.00;;;25.70;99.90;;;;;;5114726;27;20449;-71
2021/06/21 01:50:10;;;;;;;2.60;2.40;;;25.70;99.90;;;;;;5120037;27;20448;-68
2021/06/21 01:52:41;;;;;;;2.27;2.00;;;25.70;99.90;;;;;;5122208;27;20770;-69
2021/06/21 01:55:11;;;;;;;2.60;1.90;;;25.60;99.90;;;;;;5135443;27;20429;-70
2021/06/21 01:57:38;;;;;;;2.63;2.43;;;25.60;99.90;;;;;;5117752;27;20489;-71
2021/06/21 02:00:07;;;;;;;5.20;2.13;;;25.60;99.90;;;;;;5114378;27;20786;-70
2021/06/21 02:02:36;;;;;;;3.40;2.00;;;25.60;99.90;;;;;;5119967;27;20665;-71
2021/06/21 02:05:04;;;;;;;2.47;2.28;;;25.60;99.90;;;;;;5121795;27;20896;-71
2021/06/21 02:07:33;;;;;;;3.17;2.33;;;25.60;99.90;;;;;;5115976;27;20451;-71
2021/06/21 02:10:04;;;;;;;2.47;2.13;;;25.50;99.90;;;;;;5122678;27;20453;-70
2021/06/21 02:12:33;;;;;;;2.35;2.15;;;25.50;99.90;;;;;;5118202;27;20457;-70
2021/06/21 02:15:01;;;;;;;3.20;2.27;;;25.50;99.90;;;;;;5112499;27;20192;-70
2021/06/21 02:17:30;;;;;;;2.83;1.80;;;25.50;99.90;;;;;;5124914;27;20490;-69
2021/06/21 02:19:57;;;;;;;2.95;2.50;;;25.50;99.90;;;;;;5127506;27;20435;-70
2021/06/21 02:22:26;;;;;;;2.40;2.20;;;25.40;99.90;;;;;;5116574;27;20204;-70
2021/06/21 02:24:56;;;;;;;6.70;2.30;;;25.40;99.90;;;;;;5134055;27;20442;-70
2021/06/21 02:27:24;;;;;;;2.47;2.03;;;25.40;99.90;;;;;;5121966;27;20451;-69
2021/06/21 02:29:52;;;;;;;1.87;1.60;;;25.40;99.90;;;;;;5113645;28;20665;-70
2021/06/21 02:32:22;;;;;;;2.57;2.10;;;25.30;99.90;;;;;;5113874;27;20456;-70
2021/06/21 02:34:49;;;;;;;2.30;1.75;;;25.30;99.90;;;;;;5114673;27;20435;-70
2021/06/21 02:37:16;;;;;;;2.63;1.90;;;25.30;99.90;;;;;;5124017;27;20196;-69
2021/06/21 02:39:43;;;;;;;3.83;2.20;;;25.30;99.90;;;;;;5133814;27;20444;-69
2021/06/21 02:42:12;;;;;;;2.30;2.10;;;25.30;99.90;;;;;;5133697;27;20446;-69
2021/06/21 02:44:39;;;;;;;2.42;2.22;;;25.20;99.90;;;;;;5112590;28;20477;-69
2021/06/21 02:47:06;;;;;;;4.50;2.13;;;25.20;99.90;;;;;;5113334;28;20205;-69
2021/06/21 02:49:34;;;;;;;3.40;1.80;;;25.20;99.90;;;;;;5113746;27;20473;-69
2021/06/21 02:52:05;;;;;;;2.47;2.27;;;25.10;99.90;;;;;;5124356;27;21006;-69
2021/06/21 02:54:39;;;;;;;2.53;1.97;;;25.10;99.90;;;;;;5113483;28;20442;-70
2021/06/21 02:57:17;;;;;;;2.37;2.17;;;25.10;99.90;;;;;;5124357;27;20473;-69
2021/06/21 02:59:45;;;;;;;2.47;1.70;;;25.00;99.90;;;;;;5116388;27;20430;-70
2021/06/21 03:02:15;;;;;;;2.40;2.10;;;25.00;99.90;;;;;;5114577;27;20449;-70
2021/06/21 03:04:43;;;;;;;2.03;1.73;;;25.00;99.90;;;;;;5119399;27;20196;-71
2021/06/21 03:07:14;;;;;;;2.43;1.90;;;25.00;99.90;;;;;;5112102;27;20442;-70
2021/06/21 03:09:44;;;;;;;1.67;1.50;;;24.90;99.90;;;;;;5112456;27;21004;-70
2021/06/21 03:12:13;;;;;;;3.70;2.17;;;24.90;99.90;;;;;;5113179;27;20454;-69
2021/06/21 03:14:46;;;;;;;2.03;1.63;;;24.90;99.90;;;;;;5114427;27;20456;-70
2021/06/21 03:17:13;;;;;;;3.03;2.10;;;24.90;99.90;;;;;;5112276;27;20451;-70
2021/06/21 03:19:42;;;;;;;1.73;1.63;;;24.90;99.90;;;;;;5113811;27;20458;-70
2021/06/21 03:22:09;;;;;;;2.00;1.80;;;24.80;99.90;;;;;;5122214;27;20455;-70
2021/06/21 03:24:36;;;;;;;2.70;2.50;;;24.80;99.90;;;;;;5111842;28;20469;-69
2021/06/21 03:27:03;;;;;;;2.13;1.60;;;24.80;99.90;;;;;;5111990;28;20442;-69
2021/06/21 03:29:31;;;;;;;1.97;1.87;;;24.70;99.90;;;;;;5120529;27;20481;-69
2021/06/21 03:32:05;;;;;;;4.20;2.13;;;24.70;99.90;;;;;;5116507;27;20439;-70
2021/06/21 03:34:35;;;;;;;1.73;1.40;;;24.70;99.90;;;;;;5115278;27;20434;-70
2021/06/21 03:37:02;;;;;;;2.03;1.93;;;24.70;99.90;;;;;;5112697;28;20423;-71
2021/06/21 03:39:29;;;;;;;2.47;2.20;;;24.60;99.90;;;;;;5112478;27;20446;-70
2021/06/21 03:41:56;;;;;;;2.13;1.80;;;24.60;99.90;;;;;;5114607;27;20450;-70
2021/06/21 03:44:23;;;;;;;2.13;1.50;;;24.60;99.90;;;;;;5118309;27;20462;-70
2021/06/21 03:46:51;;;;;;;2.03;1.70;;;24.60;99.90;;;;;;5118010;27;20449;-71
2021/06/21 03:49:17;;;;;;;1.90;1.70;;;24.60;99.90;;;;;;5129603;27;20474;-70
2021/06/21 03:51:44;;;;;;;3.47;2.10;;;24.60;99.90;;;;;;5120303;27;20444;-70
2021/06/21 03:54:11;;;;;;;3.00;2.03;;;24.60;99.90;;;;;;5112153;28;20443;-70
2021/06/21 03:56:37;;;;;;;3.00;1.60;;;24.50;99.90;;;;;;5116732;27;20457;-70
2021/06/21 03:59:04;;;;;;;3.20;1.93;;;24.50;99.90;;;;;;5126279;27;20473;-70
2021/06/21 04:01:31;;;;;;;1.87;1.60;;;24.50;99.90;;;;;;5112697;28;20756;-69
2021/06/21 04:03:59;;;;;;;2.90;1.70;;;24.50;99.90;;;;;;5124485;27;20457;-70
2021/06/21 04:06:26;;;;;;;2.07;1.83;;;24.40;99.90;;;;;;5124738;27;20442;-70
2021/06/21 04:08:53;;;;;;;1.63;1.53;;;24.40;99.90;;;;;;5118424;28;20473;-69
2021/06/21 04:11:19;;;;;;;1.70;1.60;;;24.40;99.90;;;;;;5132032;28;20450;-69
2021/06/21 04:13:46;;;;;;;2.87;2.03;;;24.40;99.90;;;;;;5119870;28;20462;-69
2021/06/21 04:16:13;;;;;;;1.50;1.40;;;24.40;99.90;;;;;;5117407;28;20453;-69
2021/06/21 04:18:39;;;;;;;1.80;1.70;;;24.40;99.90;;;;;;5123591;28;20434;-69
2021/06/21 04:21:07;;;;;;;2.38;2.00;;;24.40;99.90;;;;;;5118013;28;20442;-69
2021/06/21 04:23:34;;;;;;;2.43;1.90;;;24.40;99.90;;;;;;5129422;28;20204;-69
2021/06/21 04:26:01;;;;;;;2.43;2.23;;;24.40;99.90;;;;;;5130878;28;20449;-69
2021/06/21 04:28:27;;;;;;;2.13;1.63;;;24.30;99.90;;;;;;5112026;28;20442;-69
2021/06/21 04:30:54;;;;;;;1.93;1.73;;;24.30;99.90;;;;;;5115283;28;20429;-70
2021/06/21 04:33:21;;;;;;;2.53;1.90;;;24.30;99.90;;;;;;5111441;28;20458;-70
2021/06/21 04:35:47;;;;;;;1.70;1.60;;;24.30;99.90;;;;;;5111692;28;20906;-70
2021/06/21 04:38:22;;;;;;;2.40;1.80;;;24.30;99.90;;;;;;5115401;28;20209;-69
2021/06/21 04:40:50;;;;;;;2.63;2.40;;;24.30;99.90;;;;;;5125587;28;20199;-70
2021/06/21 04:43:17;;;;;;;2.13;1.93;;;24.30;99.90;;;;;;5114948;28;20439;-69
2021/06/21 04:45:44;;;;;;;2.90;2.03;;;24.30;99.90;;;;;;5113286;28;20441;-70
2021/06/21 04:48:10;;;;;;;1.60;1.50;;;24.30;99.90;;;;;;5112840;28;20462;-69
2021/06/21 04:50:39;;;;;;;1.60;1.40;;;24.20;99.90;;;;;;5111736;28;20474;-69
2021/06/21 04:53:06;;;;;;;2.67;2.30;;;24.20;99.90;;;;;;5118142;28;20465;-69
2021/06/21 04:55:34;;;;;;;2.00;1.90;;;24.20;99.90;;;;;;5130060;28;20448;-69
2021/06/21 04:58:00;;;;;;;2.33;1.73;;;24.20;99.90;;;;;;5130684;27;20473;-69
2021/06/21 05:00:27;;;;;;;1.65;1.55;;;24.20;99.90;;;;;;5135582;27;20917;-69
2021/06/21 05:02:54;;;;;;;2.90;1.83;;;24.20;99.90;;;;;;5126378;27;20193;-69
2021/06/21 05:05:21;;;;;;;2.43;1.80;;;24.10;99.90;;;;;;5132764;27;20437;-70
2021/06/21 05:07:49;;;;;;;2.20;1.90;;;24.20;99.90;;;;;;5123314;27;20454;-69
2021/06/21 05:10:17;;;;;;;2.90;2.00;;;24.10;99.90;;;;;;5124265;27;20469;-69
2021/06/21 05:12:46;;;;;;;2.35;1.90;;;24.10;99.90;;;;;;5134063;27;20441;-69
2021/06/21 05:15:13;;;;;;;1.97;1.80;;;24.10;99.90;;;;;;5132764;27;20204;-69
2021/06/21 05:17:40;;;;;;;2.70;2.50;;;24.10;99.90;;;;;;5133118;27;20460;-69
2021/06/21 05:20:08;;;;;;;2.25;2.05;;;24.10;99.90;;;;;;5121633;27;20464;-69
2021/06/21 05:22:36;;;;;;;2.10;1.90;;;24.10;99.90;;;;;;5125635;27;20209;-69
2021/06/21 05:25:04;;;;;;;2.00;1.77;;;24.10;99.90;;;;;;5124668;27;20897;-69
2021/06/21 05:27:31;;;;;;;3.57;2.13;;;24.10;99.90;;;;;;5132987;27;20442;-69
2021/06/21 05:30:00;;;;;;;2.20;2.00;;;24.10;99.90;;;;;;5134673;27;20469;-69
2021/06/21 05:32:27;;;;;;;2.13;1.80;;;24.10;99.90;;;;;;5131051;27;20450;-69
2021/06/21 05:34:54;;;;;;;1.70;1.60;;;24.00;99.90;;;;;;5127787;27;20786;-69
2021/06/21 05:37:20;;;;;;;4.40;2.30;;;24.00;99.90;;;;;;5126710;27;20634;-69
2021/06/21 05:39:47;;;;;;;2.30;1.90;;;24.00;99.90;;;;;;5122789;27;20454;-69
2021/06/21 05:42:14;;;;;;;2.00;1.90;;;24.00;99.90;;;;;;5123498;27;20450;-69
2021/06/21 05:44:41;;;;;;;1.70;1.60;;;24.00;99.90;;;;;;5112948;27;20464;-69
2021/06/21 05:47:09;;;;;;;2.40;1.57;;;23.90;99.90;;;;;;5118119;27;20456;-70
2021/06/21 05:49:36;;;;;;;2.27;2.07;;;23.90;99.90;;;;;;5114857;27;20478;-70
2021/06/21 05:52:03;;;;;;;2.20;2.00;;;23.90;99.90;;;;;;5127985;27;20444;-70
2021/06/21 05:54:30;;;;;;;2.33;1.60;;;23.90;99.90;;;;;;5114089;28;20446;-69
2021/06/21 05:56:57;;;;;;;4.33;1.77;;;23.90;99.90;;;;;;5115658;27;20445;-69
2021/06/21 05:59:23;;;;;;;2.13;1.90;;;23.90;99.90;;;;;;5128989;27;20477;-69
2021/06/21 06:01:50;;;;;;;2.30;2.10;;;23.80;99.90;;;;;;5114702;27;20470;-69
2021/06/21 06:04:18;;;;;;;1.70;1.37;;;23.80;99.90;;;;;;5132512;27;20795;-70
2021/06/21 06:06:45;;;;;;;1.63;1.53;;;23.80;99.90;;;;;;5134287;27;20445;-70
2021/06/21 06:09:11;;;;;;;1.90;1.80;;;23.80;99.90;;;;;;5122451;27;20481;-69
2021/06/21 06:11:38;;;;;;;2.03;1.73;;;23.80;99.90;;;;;;5119512;27;20455;-69
2021/06/21 06:14:05;;;;;;;1.50;1.30;;;23.70;99.90;;;;;;5122491;27;20467;-69
2021/06/21 06:16:32;;;;;;;2.20;1.73;;;23.80;99.90;;;;;;5114455;27;20438;-69
2021/06/21 06:18:59;;;;;;;2.30;1.63;;;23.80;99.90;;;;;;5122787;27;20438;-69
2021/06/21 06:21:29;;;;;;;1.77;1.67;;;23.80;99.90;;;;;;5119447;27;20545;-69
2021/06/21 06:23:56;;;;;;;1.70;1.60;;;23.80;99.90;;;;;;5134721;27;20188;-69
2021/06/21 06:26:23;;;;;;;5.00;1.80;;;23.80;99.90;;;;;;5130460;27;20446;-69
2021/06/21 06:28:50;;;;;;;1.70;1.50;;;23.80;99.90;;;;;;5114176;28;20883;-69
2021/06/21 06:31:17;;;;;;;3.80;1.40;;;23.70;99.90;;;;;;5114774;27;20486;-69
2021/06/21 06:33:43;;;;;;;1.50;1.30;;;23.70;99.90;;;;;;5121346;27;20457;-69
2021/06/21 06:36:10;;;;;;;2.42;1.75;;;23.70;99.90;;;;;;5113416;28;20430;-69
2021/06/21 06:38:38;;;;;;;8.07;1.90;;;23.70;99.90;;;;;;5116506;27;20678;-69
2021/06/21 06:41:05;;;;;;;1.83;1.63;;;23.70;99.90;;;;;;5130699;27;20196;-69
2021/06/21 06:43:32;;;;;;;5.93;2.20;;;23.70;99.90;;;;;;5117890;27;20438;-69
2021/06/21 06:45:59;;;;;;;2.03;1.40;;;23.70;99.90;;;;;;5134058;27;20452;-69
2021/06/21 06:48:26;;;;;;;1.60;1.50;;;23.70;99.90;;;;;;5130784;27;20465;-69
2021/06/21 06:50:52;;;;;;;1.50;1.40;;;23.70;99.90;;;;;;5128991;27;20277;-70
2021/06/21 06:53:27;;;;;;;2.20;2.00;;;23.70;99.90;;;;;;5132472;27;20445;-70
2021/06/21 06:58:39;;;;;;;1.60;1.50;;;23.70;99.90;;;;;;5114492;27;20601;-69
2021/06/21 07:01:05;;;;;;;4.53;2.43;;;23.70;99.90;;;;;;5114320;27;21001;-69
2021/06/21 07:03:32;;;;;;;2.50;1.50;;;23.60;99.90;;;;;;5120236;27;20438;-70
2021/06/21 07:05:59;;;;;;;2.50;2.30;;;23.60;99.90;;;;;;5115553;27;20799;-70
2021/06/21 07:08:26;;;;;;;3.80;2.27;;;23.60;99.90;;;;;;5114644;27;20450;-70
2021/06/21 07:10:52;;;;;;;2.60;2.40;;;23.60;99.90;;;;;;5112808;27;21040;-70
2021/06/21 07:13:20;;;;;;;2.47;2.27;;;23.60;99.90;;;;;;5112585;28;20458;-72
2021/06/21 07:15:48;;;;;;;4.23;1.83;;;23.60;99.90;;;;;;5118951;27;20439;-73
2021/06/21 07:18:15;;;;;;;6.10;2.90;;;23.60;99.90;;;;;;5112191;28;20533;-73
2021/06/21 07:20:42;;;;;;;2.23;2.00;;;23.70;99.90;;;;;;5115156;27;20454;-70
2021/06/21 07:23:09;;;;;;;1.60;1.50;;;23.70;99.90;;;;;;5112601;28;20771;-71
2021/06/21 07:25:36;;;;;;;5.33;1.83;;;23.80;99.90;;;;;;5112117;28;20243;-71
2021/06/21 07:28:02;;;;;;;2.90;1.70;;;23.80;99.90;;;;;;5113799;27;20459;-71
2021/06/21 07:30:31;;;;;;;1.77;1.37;;;23.80;99.90;;;;;;5113525;27;20209;-72
2021/06/21 07:32:57;;;;;;;1.60;1.50;;;23.90;99.90;;;;;;5124325;27;20484;-72
2021/06/21 07:35:25;;;;;;;5.23;1.90;;;23.90;99.90;;;;;;5125538;27;20434;-70
2021/06/21 07:37:51;;;;;;;2.63;2.20;;;24.00;99.90;;;;;;5128265;27;20442;-71
2021/06/21 07:40:18;;;;;;;3.20;1.63;;;24.00;99.90;;;;;;5114515;27;20450;-71
2021/06/21 07:42:45;;;;;;;2.33;1.37;;;24.10;99.90;;;;;;5114317;27;20440;-70
2021/06/21 07:45:13;;;;;;;2.07;1.87;;;24.10;99.90;;;;;;5111463;28;20442;-70
2021/06/21 07:47:41;;;;;;;2.67;2.33;;;24.10;99.90;;;;;;5111845;27;20462;-70
2021/06/21 07:50:08;;;;;;;2.45;1.83;;;24.10;99.90;;;;;;5110298;27;20474;-69
2021/06/21 07:52:35;;;;;;;2.17;1.70;;;24.10;99.90;;;;;;5121090;27;20280;-70
2021/06/21 07:55:02;;;;;;;2.40;2.20;;;24.10;99.90;;;;;;5114726;27;20466;-71
2021/06/21 07:57:28;;;;;;;2.23;1.87;;;24.00;99.90;;;;;;5114048;27;20476;-70
2021/06/21 07:59:55;;;;;;;2.60;2.40;;;24.00;99.90;;;;;;5129921;27;20448;-71
2021/06/21 08:02:22;;;;;;;2.20;2.00;;;24.00;99.90;;;;;;5129151;27;20441;-70
2021/06/21 08:04:50;;;;;;;4.50;2.30;;;23.90;99.90;;;;;;5113705;28;20490;-69
2021/06/21 08:07:17;;;;;;;2.50;2.30;;;23.90;99.90;;;;;;5108067;27;20561;-69
2021/06/21 08:09:44;;;;;;;2.50;2.00;;;23.90;99.90;;;;;;5114137;28;20460;-70
2021/06/21 08:12:11;;;;;;;4.40;2.57;;;23.80;99.90;;;;;;5119526;27;20453;-69
2021/06/21 08:14:40;;;;;;;3.17;1.93;;;23.80;99.90;;;;;;5116061;28;20469;-69
2021/06/21 08:17:07;;;;;;;2.50;1.97;;;23.80;99.90;;;;;;5117317;28;20836;-69
2021/06/21 08:19:34;;;;;;;1.73;1.63;;;23.90;99.90;;;;;;5119337;28;20469;-68
2021/06/21 08:22:02;;;;;;;2.20;2.07;;;23.80;99.90;;;;;;5129168;28;20458;-69
2021/06/21 08:24:28;;;;;;;2.07;1.70;;;23.80;99.90;;;;;;5125227;28;20925;-69
2021/06/21 08:26:59;;;;;;;2.60;2.23;;;23.80;99.90;;;;;;5128211;28;20457;-69
2021/06/21 08:29:26;;;;;;;3.97;2.07;;;23.80;99.90;;;;;;5131688;28;20940;-69
2021/06/21 08:31:53;;;;;;;2.63;1.77;;;23.80;99.90;;;;;;5128623;27;20481;-69
2021/06/21 08:34:20;;;;;;;2.30;1.80;;;23.80;99.90;;;;;;5125729;27;20458;-68
2021/06/21 08:36:46;;;;;;;2.27;2.07;;;23.80;99.90;;;;;;5130239;27;20902;-69
2021/06/21 08:39:14;;;;;;;2.70;1.50;;;23.80;99.90;;;;;;5126378;27;20488;-69
2021/06/21 08:41:41;;;;;;;2.67;1.83;;;23.80;99.90;;;;;;5123997;27;20458;-68
2021/06/21 08:44:08;;;;;;;4.35;1.85;;;23.80;99.90;;;;;;5127562;27;20464;-68
2021/06/21 08:46:35;;;;;;;2.60;1.70;;;23.80;99.90;;;;;;5116667;27;20193;-68
2021/06/21 08:49:04;;;;;;;4.23;2.10;;;23.80;99.90;;;;;;5127981;27;20454;-68
2021/06/21 08:51:31;;;;;;;2.30;1.58;;;23.80;99.90;;;;;;5130222;27;20813;-68
2021/06/21 08:53:57;;;;;;;4.50;1.97;;;23.90;99.90;;;;;;5121751;27;20231;-68
2021/06/21 08:56:26;;;;;;;3.30;1.80;;;23.90;99.90;;;;;;5115748;27;20484;-69
2021/06/21 08:58:52;;;;;;;1.67;1.57;;;23.90;99.90;;;;;;5127753;27;20489;-68
2021/06/21 09:01:19;;;;;;;1.73;1.40;;;23.90;99.90;;;;;;5122385;27;20465;-69
2021/06/21 09:03:48;;;;;;;3.70;1.90;;;23.90;99.90;;;;;;5123788;27;20959;-69
2021/06/21 09:06:22;;;;;;;2.03;1.83;;;23.90;99.90;;;;;;5129020;27;20465;-69
2021/06/21 09:08:56;;;;;;;1.60;1.50;;;23.90;99.90;;;;;;5131919;27;20456;-69
2021/06/21 09:11:57;;;;;;;1.83;1.40;;;23.80;99.90;;;;;;5119068;27;20504;-69
2021/06/21 09:14:35;;;;;;;1.83;1.20;;;23.80;99.90;;;;;;5118722;27;20461;-69
2021/06/21 09:17:04;;;;;;;1.90;1.70;;;23.90;99.90;;;;;;5121843;27;20461;-70
2021/06/21 09:19:32;;;;;;;2.60;1.40;;;23.90;99.90;;;;;;5117981;27;20459;-69
2021/06/21 09:21:59;;;;;;;4.30;1.70;;;23.90;99.90;;;;;;5123495;27;20468;-69
2021/06/21 09:24:27;;;;;;;1.63;1.23;;;23.90;99.90;;;;;;5119071;27;20453;-70
2021/06/21 09:26:57;;;;;;;2.40;1.60;;;23.90;99.90;;;;;;5120573;27;20188;-69
2021/06/21 09:29:34;;;;;;;2.83;1.57;;;23.90;99.90;;;;;;5121565;27;20520;-68
2021/06/21 09:32:01;;;;;;;1.80;1.30;;;23.90;99.90;;;;;;5118364;27;20477;-68
2021/06/21 09:34:28;;;;;;;2.87;1.67;;;23.90;99.90;;;;;;5116662;27;20497;-68
2021/06/21 09:36:56;;;;;;;2.80;1.60;;;24.00;99.90;;;;;;5128007;27;20462;-68
2021/06/21 09:39:25;;;;;;;1.83;1.50;;;24.00;99.90;;;;;;5133741;27;20433;-69
2021/06/21 09:42:22;;;;;;;2.73;1.40;;;23.90;99.90;;;;;;5119592;27;20449;-68
2021/06/21 09:44:52;;;;;;;1.70;1.20;;;23.90;99.90;;;;;;5084397;27;20454;-68
2021/06/21 09:47:23;;;;;;;1.87;1.40;;;24.00;99.90;;;;;;5121990;27;20465;-69
2021/06/21 09:50:06;;;;;;;5.40;1.30;;;24.00;99.90;;;;;;5116811;27;20473;-68
2021/06/21 09:52:34;;;;;;;1.98;1.80;;;23.90;99.90;;;;;;5113703;27;20200;-68
2021/06/21 09:55:09;;;;;;;1.87;1.20;;;24.00;99.90;;;;;;5113880;28;20221;-68
2021/06/21 09:57:37;;;;;;;6.57;2.73;;;24.00;99.90;;;;;;5128348;27;20540;-68
2021/06/21 10:00:06;;;;;;;3.30;1.93;;;23.90;99.90;;;;;;5128157;27;20453;-68
2021/06/21 10:02:33;;;;;;;3.03;1.57;;;23.90;99.90;;;;;;5122021;27;20460;-67
2021/06/21 10:05:00;;;;;;;2.07;1.70;;;24.00;99.90;;;;;;5120713;27;20470;-69
2021/06/21 10:07:29;;;;;;;3.10;1.73;;;24.00;99.90;;;;;;5120432;27;20462;-68
2021/06/21 10:09:57;;;;;;;1.70;1.60;;;24.00;99.90;;;;;;5117450;27;20453;-68
2021/06/21 10:12:24;;;;;;;2.40;1.93;;;24.00;99.90;;;;;;5118567;27;20965;-68
2021/06/21 10:14:52;;;;;;;5.32;2.60;;;24.00;99.90;;;;;;5119762;27;20463;-69
2021/06/21 10:17:19;;;;;;;2.90;2.10;;;23.90;99.90;;;;;;5119910;27;20211;-68
2021/06/21 10:19:46;;;;;;;3.27;1.97;;;23.90;99.90;;;;;;5125618;27;20461;-69
2021/06/21 10:22:13;;;;;;;2.37;2.17;;;23.90;99.90;;;;;;5130926;27;20434;-68
2021/06/21 10:24:40;;;;;;;3.43;2.10;;;23.90;99.90;;;;;;5127505;27;20533;-68
2021/06/21 10:27:08;;;;;;;2.40;2.17;;;23.90;99.90;;;;;;5117098;27;20536;-68
2021/06/21 10:29:36;;;;;;;2.00;1.73;;;23.90;99.90;;;;;;5119978;27;20453;-69
2021/06/21 10:32:08;;;;;;;1.97;1.50;;;23.90;99.90;;;;;;5115519;27;20481;-68
2021/06/21 10:34:35;;;;;;;2.60;2.00;;;23.90;99.90;;;;;;5116065;27;20458;-68
2021/06/21 10:37:02;;;;;;;1.80;1.50;;;23.90;99.90;;;;;;5126871;27;20454;-68
2021/06/21 10:39:32;;;;;;;2.50;1.40;;;23.90;99.90;;;;;;5114366;27;20205;-68
2021/06/21 10:42:18;;;;;;;2.00;1.30;;;23.90;99.90;;;;;;5119341;27;20840;-69
2021/06/21 10:44:48;;;;;;;1.73;1.60;;;23.90;99.90;;;;;;5123803;27;20449;-69
2021/06/21 10:47:41;;;;;;;3.27;2.33;;;23.90;99.90;;;;;;5131328;27;20457;-68
2021/06/21 10:50:11;;;;;;;3.03;1.80;;;23.90;99.90;;;;;;5110906;27;20446;-68
2021/06/21 10:52:44;;;;;;;1.70;1.60;;;23.90;99.90;;;;;;5113401;27;20553;-68
2021/06/21 10:55:37;;;;;;;2.00;1.30;;;23.90;99.90;;;;;;5123816;27;20525;-69
2021/06/21 10:58:07;;;;;;;2.50;2.23;;;23.80;99.90;;;;;;5126709;27;20532;-68
2021/06/21 11:00:36;;;;;;;1.50;1.25;;;23.80;99.90;;;;;;5125102;27;20453;-67
2021/06/21 11:03:05;;;;;;;1.30;1.20;;;23.80;99.90;;;;;;5113809;28;20200;-67
2021/06/21 11:05:34;;;;;;;2.13;1.13;;;23.80;99.90;;;;;;5123668;27;21223;-67
2021/06/21 11:08:15;;;;;;;2.40;1.93;;;23.80;99.90;;;;;;5118466;27;20541;-68
2021/06/21 11:10:43;;;;;;;2.40;2.10;;;23.80;99.90;;;;;;5125535;27;20921;-69
2021/06/21 11:13:42;;;;;;;2.10;1.90;;;23.80;99.90;;;;;;5116643;27;20467;-70
2021/06/21 11:16:30;;;;;;;2.10;1.43;;;23.80;99.90;;;;;;5111375;27;20451;-71
2021/06/21 11:19:27;;;;;;;3.53;2.87;;;23.80;99.90;;;;;;5116885;27;20454;-70
2021/06/21 11:21:56;;;;;;;2.60;2.40;;;23.80;99.90;;;;;;5119886;27;20473;-70
2021/06/21 11:25:03;;;;;;;3.23;2.93;;;23.90;99.90;;;;;;5131635;27;20457;-69
2021/06/21 11:27:43;;;;;;;2.33;2.13;;;23.80;99.90;;;;;;5116808;27;20463;-70
2021/06/21 11:30:33;;;;;;;2.00;1.80;;;23.80;99.90;;;;;;5113353;27;20891;-69
2021/06/21 11:33:04;;;;;;;4.00;1.93;;;23.80;99.90;;;;;;5125039;27;20450;-70
2021/06/21 11:35:53;;;;;;;2.20;1.90;;;23.70;99.90;;;;;;5121564;27;20454;-70
2021/06/21 11:38:21;;;;;;;2.20;2.10;;;23.70;99.90;;;;;;5117945;27;20448;-70
2021/06/21 11:40:48;;;;;;;2.17;1.97;;;23.80;99.90;;;;;;5127540;27;20462;-70
2021/06/21 11:43:19;;;;;;;1.60;1.50;;;23.80;99.90;;;;;;5112528;27;20791;-70
2021/06/21 11:45:57;;;;;;;2.13;1.93;;;23.70;99.90;;;;;;5115428;27;20529;-70
2021/06/21 11:48:26;;;;;;;1.30;1.20;;;23.70;99.90;;;;;;5113546;27;20790;-69
2021/06/21 11:50:56;;;;;;;1.80;1.70;;;23.70;99.90;;;;;;5124020;27;20438;-69
2021/06/21 11:53:25;;;;;;;1.93;1.63;;;23.70;99.90;;;;;;5113232;27;20443;-67
2021/06/21 11:55:52;;;;;;;2.60;2.40;;;23.70;99.90;;;;;;5112415;28;20477;-70
2021/06/21 11:58:30;;;;;;;3.03;2.83;;;23.70;99.90;;;;;;5129170;27;20822;-69
2021/06/21 12:00:58;;;;;;;2.80;2.00;;;23.70;99.90;;;;;;5125929;27;20769;-70
2021/06/21 12:03:33;;;;;;;3.70;2.43;;;23.70;99.90;;;;;;5111230;28;20447;-70
2021/06/21 12:06:02;;;;;;;2.60;2.40;;;23.70;99.90;;;;;;5114227;28;21162;-71
2021/06/21 12:08:35;;;;;;;3.40;3.10;;;23.70;99.90;;;;;;5116808;27;20526;-69
2021/06/21 12:11:15;;;;;;;3.63;3.33;;;23.70;99.90;;;;;;5118074;27;20934;-69
2021/06/21 12:13:43;;;;;;;3.50;3.20;;;23.70;99.90;;;;;;5116460;28;20832;-70
2021/06/21 12:16:13;;;;;;;3.33;3.10;;;23.70;99.90;;;;;;5119608;28;20930;-70
2021/06/21 12:18:40;;;;;;;4.37;2.97;;;23.70;99.90;;;;;;5118328;28;20838;-69
2021/06/21 12:21:08;;;;;;;3.20;3.00;;;23.60;99.90;;;;;;5119046;28;20451;-68
2021/06/21 12:23:35;;;;;;;3.75;3.45;;;23.60;99.90;;;;;;5111903;28;20438;-67
2021/06/21 12:26:02;;;;;;;3.60;3.30;;;23.60;99.90;;;;;;5111804;28;20197;-68
2021/06/21 12:28:29;;;;;;;4.83;4.07;;;23.60;99.90;;;;;;5113677;28;20451;-68
2021/06/21 12:30:58;;;;;;;3.27;2.97;;;23.60;99.90;;;;;;5122965;28;20445;-68
2021/06/21 12:33:29;;;;;;;3.50;3.20;;;23.60;99.90;;;;;;5114038;28;20454;-70
2021/06/21 12:36:18;;;;;;;3.50;2.90;;;23.60;99.90;;;;;;5119590;28;20466;-69
2021/06/21 12:38:56;;;;;;;6.60;3.80;;;23.50;99.90;;;;;;5110657;28;20441;-68
2021/06/21 12:41:26;;;;;;;3.07;2.80;;;23.50;99.90;;;;;;5122857;28;20452;-69
2021/06/21 12:43:54;;;;;;;3.00;2.70;;;23.50;99.90;;;;;;5120013;28;20451;-68
2021/06/21 12:46:22;;;;;;;3.30;3.03;;;23.50;99.90;;;;;;5120974;28;20910;-67
2021/06/21 12:48:49;;;;;;;3.47;3.17;;;23.50;99.90;;;;;;5116112;27;20454;-68
2021/06/21 12:51:19;;;;;;;3.13;2.92;;;23.50;99.90;;;;;;5116272;28;20474;-69
2021/06/21 12:53:48;;;;;;;2.70;2.50;;;23.50;99.90;;;;;;5118508;28;20205;-70
2021/06/21 12:56:23;;;;;;;2.63;1.77;;;23.50;99.90;;;;;;5114492;28;20460;-68
2021/06/21 12:58:50;;;;;;;2.97;2.77;;;23.40;99.90;;;;;;5120643;28;20999;-69
2021/06/21 13:01:23;;;;;;;2.57;2.37;;;23.50;99.90;;;;;;5115159;28;20454;-68
2021/06/21 13:03:49;;;;;;;2.30;2.10;;;23.40;99.90;;;;;;5123623;28;20453;-68
2021/06/21 13:06:34;;;;;;;2.33;2.13;;;23.40;99.90;;;;;;5120718;28;20457;-69